sensor_id;sensor_type;location;lat;lon;timestamp;P1;durP1;ratioP1;P2;durP2;ratioP2
26951;SDS011;14507;52.418;13.398;2022-08-14T00:00:39;20.90;;;14.15;;
26951;SDS011;14507;52.418;13.398;2022-08-14T00:03:05;18.65;;;14.10;;
26951;SDS011;14507;52.418;13.398;2022-08-14T00:05:31;19.05;;;13.57;;
26951;SDS011;14507;52.418;13.398;2022-08-14T00:07:57;23.70;;;13.82;;
26951;SDS011;14507;52.418;13.398;2022-08-14T00:10:23;21.35;;;14.55;;
26951;SDS011;14507;52.418;13.398;2022-08-14T00:12:51;20.45;;;14.55;;
26951;SDS011;14507;52.418;13.398;2022-08-14T00:15:23;17.40;;;12.50;;
26951;SDS011;14507;52.418;13.398;2022-08-14T00:17:52;16.75;;;13.32;;
26951;SDS011;14507;52.418;13.398;2022-08-14T00:20:19;17.48;;;13.20;;
26951;SDS011;14507;52.418;13.398;2022-08-14T00:22:48;18.33;;;12.93;;
26951;SDS011;14507;52.418;13.398;2022-08-14T00:25:13;20.00;;;14.90;;
26951;SDS011;14507;52.418;13.398;2022-08-14T00:27:39;17.63;;;13.50;;
26951;SDS011;14507;52.418;13.398;2022-08-14T00:30:05;19.15;;;13.50;;
26951;SDS011;14507;52.418;13.398;2022-08-14T00:32:35;19.08;;;13.18;;
26951;SDS011;14507;52.418;13.398;2022-08-14T00:35:02;18.95;;;12.98;;
26951;SDS011;14507;52.418;13.398;2022-08-14T00:37:30;14.98;;;11.45;;
26951;SDS011;14507;52.418;13.398;2022-08-14T00:39:56;12.57;;;10.45;;
26951;SDS011;14507;52.418;13.398;2022-08-14T00:42:22;15.43;;;11.27;;
26951;SDS011;14507;52.418;13.398;2022-08-14T00:44:48;16.17;;;10.82;;
26951;SDS011;14507;52.418;13.398;2022-08-14T00:47:15;16.13;;;10.95;;
26951;SDS011;14507;52.418;13.398;2022-08-14T00:49:42;13.93;;;10.43;;
26951;SDS011;14507;52.418;13.398;2022-08-14T00:52:08;14.15;;;10.35;;
26951;SDS011;14507;52.418;13.398;2022-08-14T00:54:38;15.13;;;10.50;;
26951;SDS011;14507;52.418;13.398;2022-08-14T00:57:05;16.52;;;10.35;;
26951;SDS011;14507;52.418;13.398;2022-08-14T00:59:30;17.33;;;9.68;;
26951;SDS011;14507;52.418;13.398;2022-08-14T01:01:57;13.23;;;9.80;;
26951;SDS011;14507;52.418;13.398;2022-08-14T01:04:25;13.32;;;10.23;;
26951;SDS011;14507;52.418;13.398;2022-08-14T01:06:52;12.55;;;10.10;;
26951;SDS011;14507;52.418;13.398;2022-08-14T01:09:18;14.13;;;9.65;;
26951;SDS011;14507;52.418;13.398;2022-08-14T01:11:48;14.70;;;9.93;;
26951;SDS011;14507;52.418;13.398;2022-08-14T01:14:15;17.13;;;10.25;;
26951;SDS011;14507;52.418;13.398;2022-08-14T01:16:42;14.13;;;9.02;;
26951;SDS011;14507;52.418;13.398;2022-08-14T01:19:08;12.63;;;9.98;;
26951;SDS011;14507;52.418;13.398;2022-08-14T01:21:52;14.07;;;10.50;;
26951;SDS011;14507;52.418;13.398;2022-08-14T01:24:18;12.75;;;9.82;;
26951;SDS011;14507;52.418;13.398;2022-08-14T01:26:48;16.13;;;10.77;;
26951;SDS011;14507;52.418;13.398;2022-08-14T01:29:15;14.93;;;10.43;;
26951;SDS011;14507;52.418;13.398;2022-08-14T01:31:43;15.10;;;10.02;;
26951;SDS011;14507;52.418;13.398;2022-08-14T01:34:19;14.13;;;10.40;;
26951;SDS011;14507;52.418;13.398;2022-08-14T01:36:47;12.98;;;10.40;;
26951;SDS011;14507;52.418;13.398;2022-08-14T01:39:15;14.20;;;10.00;;
26951;SDS011;14507;52.418;13.398;2022-08-14T01:41:43;14.30;;;10.27;;
26951;SDS011;14507;52.418;13.398;2022-08-14T01:44:13;16.75;;;10.40;;
26951;SDS011;14507;52.418;13.398;2022-08-14T01:46:40;14.48;;;10.70;;
26951;SDS011;14507;52.418;13.398;2022-08-14T01:49:09;13.07;;;10.27;;
26951;SDS011;14507;52.418;13.398;2022-08-14T01:51:37;16.65;;;9.93;;
26951;SDS011;14507;52.418;13.398;2022-08-14T01:54:14;15.18;;;10.80;;
26951;SDS011;14507;52.418;13.398;2022-08-14T01:56:46;13.25;;;10.45;;
26951;SDS011;14507;52.418;13.398;2022-08-14T02:01:41;12.25;;;10.25;;
26951;SDS011;14507;52.418;13.398;2022-08-14T02:04:09;14.83;;;10.97;;
26951;SDS011;14507;52.418;13.398;2022-08-14T02:06:35;17.40;;;10.45;;
26951;SDS011;14507;52.418;13.398;2022-08-14T02:09:03;14.88;;;10.93;;
26951;SDS011;14507;52.418;13.398;2022-08-14T02:11:29;14.38;;;9.88;;
26951;SDS011;14507;52.418;13.398;2022-08-14T02:14:00;13.10;;;10.15;;
26951;SDS011;14507;52.418;13.398;2022-08-14T02:16:32;14.65;;;10.35;;
26951;SDS011;14507;52.418;13.398;2022-08-14T02:19:04;14.98;;;11.05;;
26951;SDS011;14507;52.418;13.398;2022-08-14T02:21:34;16.77;;;10.73;;
26951;SDS011;14507;52.418;13.398;2022-08-14T02:24:02;13.55;;;10.60;;
26951;SDS011;14507;52.418;13.398;2022-08-14T02:26:30;15.23;;;10.20;;
26951;SDS011;14507;52.418;13.398;2022-08-14T02:28:59;17.10;;;10.68;;
26951;SDS011;14507;52.418;13.398;2022-08-14T02:31:28;11.80;;;10.57;;
26951;SDS011;14507;52.418;13.398;2022-08-14T02:34:02;16.88;;;10.40;;
26951;SDS011;14507;52.418;13.398;2022-08-14T02:36:41;15.40;;;10.52;;
26951;SDS011;14507;52.418;13.398;2022-08-14T02:39:10;16.17;;;10.25;;
26951;SDS011;14507;52.418;13.398;2022-08-14T02:41:36;12.57;;;10.63;;
26951;SDS011;14507;52.418;13.398;2022-08-14T02:44:03;15.30;;;11.27;;
26951;SDS011;14507;52.418;13.398;2022-08-14T02:48:56;16.42;;;11.20;;
26951;SDS011;14507;52.418;13.398;2022-08-14T02:51:22;17.42;;;11.02;;
26951;SDS011;14507;52.418;13.398;2022-08-14T02:53:48;14.50;;;10.63;;
26951;SDS011;14507;52.418;13.398;2022-08-14T02:56:15;12.80;;;10.27;;
26951;SDS011;14507;52.418;13.398;2022-08-14T02:58:43;16.33;;;11.10;;
26951;SDS011;14507;52.418;13.398;2022-08-14T03:01:14;14.82;;;11.32;;
26951;SDS011;14507;52.418;13.398;2022-08-14T03:03:40;13.25;;;10.32;;
26951;SDS011;14507;52.418;13.398;2022-08-14T03:06:07;14.05;;;10.13;;
26951;SDS011;14507;52.418;13.398;2022-08-14T03:08:35;11.80;;;10.20;;
26951;SDS011;14507;52.418;13.398;2022-08-14T03:11:03;13.82;;;11.15;;
26951;SDS011;14507;52.418;13.398;2022-08-14T03:13:34;14.55;;;10.93;;
26951;SDS011;14507;52.418;13.398;2022-08-14T03:16:05;13.77;;;10.63;;
26951;SDS011;14507;52.418;13.398;2022-08-14T03:18:32;14.43;;;10.65;;
26951;SDS011;14507;52.418;13.398;2022-08-14T03:21:02;14.75;;;10.90;;
26951;SDS011;14507;52.418;13.398;2022-08-14T03:23:29;13.23;;;10.32;;
26951;SDS011;14507;52.418;13.398;2022-08-14T03:25:59;14.02;;;10.63;;
26951;SDS011;14507;52.418;13.398;2022-08-14T03:28:24;13.52;;;10.27;;
26951;SDS011;14507;52.418;13.398;2022-08-14T03:30:52;16.15;;;11.25;;
26951;SDS011;14507;52.418;13.398;2022-08-14T03:33:17;14.50;;;11.55;;
26951;SDS011;14507;52.418;13.398;2022-08-14T03:35:44;14.90;;;10.57;;
26951;SDS011;14507;52.418;13.398;2022-08-14T03:38:10;14.32;;;10.30;;
26951;SDS011;14507;52.418;13.398;2022-08-14T03:40:38;15.63;;;10.77;;
26951;SDS011;14507;52.418;13.398;2022-08-14T03:43:05;16.08;;;10.93;;
26951;SDS011;14507;52.418;13.398;2022-08-14T03:45:33;16.77;;;10.32;;
26951;SDS011;14507;52.418;13.398;2022-08-14T03:48:00;13.50;;;10.83;;
26951;SDS011;14507;52.418;13.398;2022-08-14T03:50:28;13.90;;;10.52;;
26951;SDS011;14507;52.418;13.398;2022-08-14T03:52:56;14.55;;;10.52;;
26951;SDS011;14507;52.418;13.398;2022-08-14T03:55:23;15.77;;;11.35;;
26951;SDS011;14507;52.418;13.398;2022-08-14T03:57:49;14.07;;;10.70;;
26951;SDS011;14507;52.418;13.398;2022-08-14T04:00:15;13.20;;;10.32;;
26951;SDS011;14507;52.418;13.398;2022-08-14T04:02:41;12.95;;;10.43;;
26951;SDS011;14507;52.418;13.398;2022-08-14T04:05:08;13.48;;;10.48;;
26951;SDS011;14507;52.418;13.398;2022-08-14T04:07:34;17.77;;;11.90;;
26951;SDS011;14507;52.418;13.398;2022-08-14T04:10:03;14.57;;;10.15;;
26951;SDS011;14507;52.418;13.398;2022-08-14T04:12:29;16.67;;;9.88;;
26951;SDS011;14507;52.418;13.398;2022-08-14T04:14:55;13.70;;;10.25;;
26951;SDS011;14507;52.418;13.398;2022-08-14T04:17:21;13.85;;;11.07;;
26951;SDS011;14507;52.418;13.398;2022-08-14T04:19:46;14.27;;;10.50;;
26951;SDS011;14507;52.418;13.398;2022-08-14T04:22:12;16.80;;;10.93;;
26951;SDS011;14507;52.418;13.398;2022-08-14T04:24:39;16.67;;;11.15;;
26951;SDS011;14507;52.418;13.398;2022-08-14T04:27:06;14.77;;;11.20;;
26951;SDS011;14507;52.418;13.398;2022-08-14T04:29:34;18.33;;;11.43;;
26951;SDS011;14507;52.418;13.398;2022-08-14T04:32:05;13.32;;;10.45;;
26951;SDS011;14507;52.418;13.398;2022-08-14T04:34:32;14.38;;;10.32;;
26951;SDS011;14507;52.418;13.398;2022-08-14T04:36:59;12.73;;;10.23;;
26951;SDS011;14507;52.418;13.398;2022-08-14T04:39:43;11.25;;;9.07;;
26951;SDS011;14507;52.418;13.398;2022-08-14T04:42:27;15.52;;;9.95;;
26951;SDS011;14507;52.418;13.398;2022-08-14T04:45:11;12.82;;;9.70;;
26951;SDS011;14507;52.418;13.398;2022-08-14T04:47:39;13.57;;;9.65;;
26951;SDS011;14507;52.418;13.398;2022-08-14T04:50:23;14.25;;;9.38;;
26951;SDS011;14507;52.418;13.398;2022-08-14T04:52:49;12.52;;;9.38;;
26951;SDS011;14507;52.418;13.398;2022-08-14T04:55:15;12.57;;;10.10;;
26951;SDS011;14507;52.418;13.398;2022-08-14T04:57:40;12.30;;;9.30;;
26951;SDS011;14507;52.418;13.398;2022-08-14T05:00:06;13.15;;;9.20;;
26951;SDS011;14507;52.418;13.398;2022-08-14T05:02:32;13.07;;;9.93;;
26951;SDS011;14507;52.418;13.398;2022-08-14T05:04:59;12.50;;;10.27;;
26951;SDS011;14507;52.418;13.398;2022-08-14T05:07:25;11.65;;;9.45;;
26951;SDS011;14507;52.418;13.398;2022-08-14T05:09:50;12.23;;;9.63;;
26951;SDS011;14507;52.418;13.398;2022-08-14T05:12:16;11.90;;;9.57;;
26951;SDS011;14507;52.418;13.398;2022-08-14T05:14:42;15.07;;;9.68;;
26951;SDS011;14507;52.418;13.398;2022-08-14T05:17:09;19.83;;;9.57;;
26951;SDS011;14507;52.418;13.398;2022-08-14T05:19:35;11.57;;;9.07;;
26951;SDS011;14507;52.418;13.398;2022-08-14T05:22:01;14.10;;;9.48;;
26951;SDS011;14507;52.418;13.398;2022-08-14T05:24:27;13.15;;;9.85;;
26951;SDS011;14507;52.418;13.398;2022-08-14T05:26:53;12.07;;;9.00;;
26951;SDS011;14507;52.418;13.398;2022-08-14T05:29:20;13.45;;;9.40;;
26951;SDS011;14507;52.418;13.398;2022-08-14T05:31:46;15.48;;;9.23;;
26951;SDS011;14507;52.418;13.398;2022-08-14T05:34:11;12.68;;;8.63;;
26951;SDS011;14507;52.418;13.398;2022-08-14T05:36:37;10.73;;;8.88;;
26951;SDS011;14507;52.418;13.398;2022-08-14T05:39:03;16.33;;;8.00;;
26951;SDS011;14507;52.418;13.398;2022-08-14T05:41:30;12.98;;;9.77;;
26951;SDS011;14507;52.418;13.398;2022-08-14T05:43:57;9.50;;;8.15;;
26951;SDS011;14507;52.418;13.398;2022-08-14T05:46:22;16.40;;;8.80;;
26951;SDS011;14507;52.418;13.398;2022-08-14T05:48:49;11.55;;;7.97;;
26951;SDS011;14507;52.418;13.398;2022-08-14T05:51:17;11.38;;;7.97;;
26951;SDS011;14507;52.418;13.398;2022-08-14T05:53:44;12.25;;;7.63;;
26951;SDS011;14507;52.418;13.398;2022-08-14T05:56:10;10.50;;;7.88;;
26951;SDS011;14507;52.418;13.398;2022-08-14T05:58:36;9.07;;;7.22;;
26951;SDS011;14507;52.418;13.398;2022-08-14T06:01:01;11.45;;;7.38;;
26951;SDS011;14507;52.418;13.398;2022-08-14T06:03:27;10.85;;;7.38;;
26951;SDS011;14507;52.418;13.398;2022-08-14T06:05:54;11.05;;;6.82;;
26951;SDS011;14507;52.418;13.398;2022-08-14T06:10:49;9.45;;;6.75;;
26951;SDS011;14507;52.418;13.398;2022-08-14T06:13:15;10.45;;;6.90;;
26951;SDS011;14507;52.418;13.398;2022-08-14T06:15:42;9.37;;;6.70;;
26951;SDS011;14507;52.418;13.398;2022-08-14T06:18:08;9.05;;;6.90;;
26951;SDS011;14507;52.418;13.398;2022-08-14T06:20:35;9.93;;;6.93;;
26951;SDS011;14507;52.418;13.398;2022-08-14T06:23:01;10.05;;;6.97;;
26951;SDS011;14507;52.418;13.398;2022-08-14T06:25:27;11.25;;;7.28;;
26951;SDS011;14507;52.418;13.398;2022-08-14T06:27:53;10.48;;;7.15;;
26951;SDS011;14507;52.418;13.398;2022-08-14T06:30:20;9.23;;;7.63;;
26951;SDS011;14507;52.418;13.398;2022-08-14T06:32:49;12.07;;;7.70;;
26951;SDS011;14507;52.418;13.398;2022-08-14T06:35:22;8.23;;;6.65;;
26951;SDS011;14507;52.418;13.398;2022-08-14T06:37:52;9.93;;;7.18;;
26951;SDS011;14507;52.418;13.398;2022-08-14T06:40:22;13.55;;;7.63;;
26951;SDS011;14507;52.418;13.398;2022-08-14T06:43:26;14.68;;;6.63;;
26951;SDS011;14507;52.418;13.398;2022-08-14T06:45:47;9.25;;;7.15;;
26951;SDS011;14507;52.418;13.398;2022-08-14T06:48:14;13.65;;;7.10;;
26951;SDS011;14507;52.418;13.398;2022-08-14T06:50:49;9.45;;;7.70;;
26951;SDS011;14507;52.418;13.398;2022-08-14T06:53:16;11.75;;;7.45;;
26951;SDS011;14507;52.418;13.398;2022-08-14T06:55:43;11.00;;;7.43;;
26951;SDS011;14507;52.418;13.398;2022-08-14T06:58:11;12.25;;;8.05;;
26951;SDS011;14507;52.418;13.398;2022-08-14T07:03:04;13.23;;;7.68;;
26951;SDS011;14507;52.418;13.398;2022-08-14T07:05:52;10.07;;;7.47;;
26951;SDS011;14507;52.418;13.398;2022-08-14T07:08:19;9.27;;;7.55;;
26951;SDS011;14507;52.418;13.398;2022-08-14T07:10:47;12.82;;;8.07;;
26951;SDS011;14507;52.418;13.398;2022-08-14T07:13:16;14.95;;;8.98;;
26951;SDS011;14507;52.418;13.398;2022-08-14T07:15:46;9.73;;;7.63;;
26951;SDS011;14507;52.418;13.398;2022-08-14T07:18:19;7.95;;;6.95;;
26951;SDS011;14507;52.418;13.398;2022-08-14T07:20:46;14.85;;;7.60;;
26951;SDS011;14507;52.418;13.398;2022-08-14T07:23:12;10.68;;;7.10;;
26951;SDS011;14507;52.418;13.398;2022-08-14T07:25:39;10.60;;;6.43;;
26951;SDS011;14507;52.418;13.398;2022-08-14T07:30:32;8.98;;;6.60;;
26951;SDS011;14507;52.418;13.398;2022-08-14T07:32:59;8.13;;;6.30;;
26951;SDS011;14507;52.418;13.398;2022-08-14T07:35:24;8.05;;;6.20;;
26951;SDS011;14507;52.418;13.398;2022-08-14T07:37:50;10.52;;;6.78;;
26951;SDS011;14507;52.418;13.398;2022-08-14T07:40:16;10.43;;;6.57;;
26951;SDS011;14507;52.418;13.398;2022-08-14T07:42:41;9.27;;;5.97;;
26951;SDS011;14507;52.418;13.398;2022-08-14T07:45:07;10.32;;;6.93;;
26951;SDS011;14507;52.418;13.398;2022-08-14T07:47:37;8.73;;;6.45;;
26951;SDS011;14507;52.418;13.398;2022-08-14T07:50:07;9.25;;;6.40;;
26951;SDS011;14507;52.418;13.398;2022-08-14T07:52:38;10.43;;;6.22;;
26951;SDS011;14507;52.418;13.398;2022-08-14T07:55:04;9.07;;;6.15;;
26951;SDS011;14507;52.418;13.398;2022-08-14T07:57:32;9.68;;;6.07;;
26951;SDS011;14507;52.418;13.398;2022-08-14T07:59:57;9.52;;;5.80;;
26951;SDS011;14507;52.418;13.398;2022-08-14T08:02:23;9.32;;;5.63;;
26951;SDS011;14507;52.418;13.398;2022-08-14T08:04:54;18.83;;;5.70;;
26951;SDS011;14507;52.418;13.398;2022-08-14T08:07:24;10.75;;;6.18;;
26951;SDS011;14507;52.418;13.398;2022-08-14T08:09:54;13.90;;;6.50;;
26951;SDS011;14507;52.418;13.398;2022-08-14T08:12:21;7.78;;;6.05;;
26951;SDS011;14507;52.418;13.398;2022-08-14T08:14:49;8.27;;;6.40;;
26951;SDS011;14507;52.418;13.398;2022-08-14T08:17:16;9.95;;;5.97;;
26951;SDS011;14507;52.418;13.398;2022-08-14T08:19:44;10.30;;;5.38;;
26951;SDS011;14507;52.418;13.398;2022-08-14T08:22:11;8.48;;;5.75;;
26951;SDS011;14507;52.418;13.398;2022-08-14T08:24:37;8.13;;;5.60;;
26951;SDS011;14507;52.418;13.398;2022-08-14T08:27:12;6.50;;;4.85;;
26951;SDS011;14507;52.418;13.398;2022-08-14T08:29:43;7.03;;;5.38;;
26951;SDS011;14507;52.418;13.398;2022-08-14T08:32:09;9.32;;;5.05;;
26951;SDS011;14507;52.418;13.398;2022-08-14T08:34:45;7.80;;;4.82;;
26951;SDS011;14507;52.418;13.398;2022-08-14T08:37:13;5.10;;;4.32;;
26951;SDS011;14507;52.418;13.398;2022-08-14T08:39:45;5.90;;;4.57;;
26951;SDS011;14507;52.418;13.398;2022-08-14T08:42:12;9.45;;;4.82;;
26951;SDS011;14507;52.418;13.398;2022-08-14T08:44:37;7.60;;;4.60;;
26951;SDS011;14507;52.418;13.398;2022-08-14T08:47:03;6.82;;;4.30;;
26951;SDS011;14507;52.418;13.398;2022-08-14T08:49:35;7.32;;;4.32;;
26951;SDS011;14507;52.418;13.398;2022-08-14T08:52:03;8.35;;;4.82;;
26951;SDS011;14507;52.418;13.398;2022-08-14T08:54:29;8.50;;;5.20;;
26951;SDS011;14507;52.418;13.398;2022-08-14T08:56:55;9.63;;;5.10;;
26951;SDS011;14507;52.418;13.398;2022-08-14T08:59:28;11.35;;;4.65;;
26951;SDS011;14507;52.418;13.398;2022-08-14T09:02:05;6.78;;;4.43;;
26951;SDS011;14507;52.418;13.398;2022-08-14T09:04:36;11.30;;;4.82;;
26951;SDS011;14507;52.418;13.398;2022-08-14T09:07:03;8.82;;;4.78;;
26951;SDS011;14507;52.418;13.398;2022-08-14T09:09:30;7.07;;;4.60;;
26951;SDS011;14507;52.418;13.398;2022-08-14T09:11:57;6.97;;;4.50;;
26951;SDS011;14507;52.418;13.398;2022-08-14T09:14:25;7.30;;;4.60;;
26951;SDS011;14507;52.418;13.398;2022-08-14T09:16:54;8.40;;;5.00;;
26951;SDS011;14507;52.418;13.398;2022-08-14T09:19:24;8.95;;;4.43;;
26951;SDS011;14507;52.418;13.398;2022-08-14T09:21:51;8.93;;;4.75;;
26951;SDS011;14507;52.418;13.398;2022-08-14T09:24:18;5.78;;;4.55;;
26951;SDS011;14507;52.418;13.398;2022-08-14T09:26:44;8.50;;;4.78;;
26951;SDS011;14507;52.418;13.398;2022-08-14T09:29:11;7.05;;;4.35;;
26951;SDS011;14507;52.418;13.398;2022-08-14T09:31:37;8.50;;;5.18;;
26951;SDS011;14507;52.418;13.398;2022-08-14T09:34:21;7.53;;;4.32;;
26951;SDS011;14507;52.418;13.398;2022-08-14T09:39:49;7.88;;;4.15;;
26951;SDS011;14507;52.418;13.398;2022-08-14T09:42:22;5.28;;;4.53;;
26951;SDS011;14507;52.418;13.398;2022-08-14T09:47:48;7.68;;;4.03;;
26951;SDS011;14507;52.418;13.398;2022-08-14T09:52:54;6.95;;;4.38;;
26951;SDS011;14507;52.418;13.398;2022-08-14T09:55:27;6.63;;;4.13;;
26951;SDS011;14507;52.418;13.398;2022-08-14T09:58:07;7.00;;;4.30;;
26951;SDS011;14507;52.418;13.398;2022-08-14T10:03:24;7.88;;;4.38;;
26951;SDS011;14507;52.418;13.398;2022-08-14T10:06:02;8.25;;;3.47;;
26951;SDS011;14507;52.418;13.398;2022-08-14T10:08:40;5.47;;;4.05;;
26951;SDS011;14507;52.418;13.398;2022-08-14T10:11:18;9.02;;;4.55;;
26951;SDS011;14507;52.418;13.398;2022-08-14T10:13:49;7.45;;;3.97;;
26951;SDS011;14507;52.418;13.398;2022-08-14T10:16:18;7.20;;;4.10;;
26951;SDS011;14507;52.418;13.398;2022-08-14T10:19:05;17.48;;;4.35;;
26951;SDS011;14507;52.418;13.398;2022-08-14T10:21:41;7.85;;;3.88;;
26951;SDS011;14507;52.418;13.398;2022-08-14T10:24:10;7.38;;;4.03;;
26951;SDS011;14507;52.418;13.398;2022-08-14T10:26:57;9.18;;;3.20;;
26951;SDS011;14507;52.418;13.398;2022-08-14T10:29:37;4.40;;;2.97;;
26951;SDS011;14507;52.418;13.398;2022-08-14T10:32:05;6.38;;;2.85;;
26951;SDS011;14507;52.418;13.398;2022-08-14T10:34:37;5.10;;;2.80;;
26951;SDS011;14507;52.418;13.398;2022-08-14T10:37:08;5.25;;;3.10;;
26951;SDS011;14507;52.418;13.398;2022-08-14T10:39:35;3.85;;;2.72;;
26951;SDS011;14507;52.418;13.398;2022-08-14T10:42:09;10.88;;;3.08;;
26951;SDS011;14507;52.418;13.398;2022-08-14T10:44:38;6.13;;;3.17;;
26951;SDS011;14507;52.418;13.398;2022-08-14T10:47:05;5.22;;;3.00;;
26951;SDS011;14507;52.418;13.398;2022-08-14T10:49:34;6.07;;;3.10;;
26951;SDS011;14507;52.418;13.398;2022-08-14T10:52:08;6.63;;;3.08;;
26951;SDS011;14507;52.418;13.398;2022-08-14T10:54:37;5.13;;;3.33;;
26951;SDS011;14507;52.418;13.398;2022-08-14T10:57:24;6.45;;;3.13;;
26951;SDS011;14507;52.418;13.398;2022-08-14T11:00:25;4.05;;;3.03;;
26951;SDS011;14507;52.418;13.398;2022-08-14T11:02:54;7.28;;;3.17;;
26951;SDS011;14507;52.418;13.398;2022-08-14T11:05:25;5.97;;;2.80;;
26951;SDS011;14507;52.418;13.398;2022-08-14T11:08:05;13.45;;;3.45;;
26951;SDS011;14507;52.418;13.398;2022-08-14T11:11:04;4.70;;;2.85;;
26951;SDS011;14507;52.418;13.398;2022-08-14T11:13:26;7.15;;;3.47;;
26951;SDS011;14507;52.418;13.398;2022-08-14T11:15:54;8.00;;;3.75;;
26951;SDS011;14507;52.418;13.398;2022-08-14T11:18:21;6.07;;;3.30;;
26951;SDS011;14507;52.418;13.398;2022-08-14T11:20:48;8.07;;;3.42;;
26951;SDS011;14507;52.418;13.398;2022-08-14T11:23:18;7.78;;;3.63;;
26951;SDS011;14507;52.418;13.398;2022-08-14T11:25:45;10.40;;;3.47;;
26951;SDS011;14507;52.418;13.398;2022-08-14T11:28:13;11.65;;;3.45;;
26951;SDS011;14507;52.418;13.398;2022-08-14T11:30:40;7.70;;;3.10;;
26951;SDS011;14507;52.418;13.398;2022-08-14T11:33:08;10.35;;;3.20;;
26951;SDS011;14507;52.418;13.398;2022-08-14T11:35:35;3.90;;;2.75;;
26951;SDS011;14507;52.418;13.398;2022-08-14T11:38:03;7.97;;;3.20;;
26951;SDS011;14507;52.418;13.398;2022-08-14T11:40:31;6.70;;;3.38;;
26951;SDS011;14507;52.418;13.398;2022-08-14T11:42:59;7.35;;;3.28;;
26951;SDS011;14507;52.418;13.398;2022-08-14T11:45:27;8.00;;;3.00;;
26951;SDS011;14507;52.418;13.398;2022-08-14T11:47:57;14.50;;;3.40;;
26951;SDS011;14507;52.418;13.398;2022-08-14T11:50:23;7.22;;;3.25;;
26951;SDS011;14507;52.418;13.398;2022-08-14T11:52:52;7.28;;;3.45;;
26951;SDS011;14507;52.418;13.398;2022-08-14T11:55:21;9.10;;;3.05;;
26951;SDS011;14507;52.418;13.398;2022-08-14T11:57:59;9.02;;;3.50;;
26951;SDS011;14507;52.418;13.398;2022-08-14T12:00:29;4.82;;;2.90;;
26951;SDS011;14507;52.418;13.398;2022-08-14T12:02:56;5.63;;;2.78;;
26951;SDS011;14507;52.418;13.398;2022-08-14T12:05:31;4.28;;;3.10;;
26951;SDS011;14507;52.418;13.398;2022-08-14T12:07:59;5.97;;;3.28;;
26951;SDS011;14507;52.418;13.398;2022-08-14T12:12:53;14.68;;;10.75;;
26951;SDS011;14507;52.418;13.398;2022-08-14T12:15:28;6.07;;;3.20;;
26951;SDS011;14507;52.418;13.398;2022-08-14T12:17:55;5.82;;;3.15;;
26951;SDS011;14507;52.418;13.398;2022-08-14T12:20:27;7.35;;;3.53;;
26951;SDS011;14507;52.418;13.398;2022-08-14T12:22:58;7.05;;;3.67;;
26951;SDS011;14507;52.418;13.398;2022-08-14T12:25:31;7.30;;;3.53;;
26951;SDS011;14507;52.418;13.398;2022-08-14T12:28:00;4.10;;;3.17;;
26951;SDS011;14507;52.418;13.398;2022-08-14T12:32:58;8.65;;;3.60;;
26951;SDS011;14507;52.418;13.398;2022-08-14T12:35:40;5.77;;;3.20;;
26951;SDS011;14507;52.418;13.398;2022-08-14T12:38:08;5.50;;;3.35;;
26951;SDS011;14507;52.418;13.398;2022-08-14T12:40:46;7.10;;;3.25;;
26951;SDS011;14507;52.418;13.398;2022-08-14T12:43:13;5.05;;;2.88;;
26951;SDS011;14507;52.418;13.398;2022-08-14T12:45:45;4.28;;;3.22;;
26951;SDS011;14507;52.418;13.398;2022-08-14T12:48:15;8.35;;;3.50;;
26951;SDS011;14507;52.418;13.398;2022-08-14T12:50:43;9.90;;;6.25;;
26951;SDS011;14507;52.418;13.398;2022-08-14T12:53:10;6.05;;;3.83;;
26951;SDS011;14507;52.418;13.398;2022-08-14T12:55:36;5.63;;;3.08;;
26951;SDS011;14507;52.418;13.398;2022-08-14T12:58:04;6.25;;;2.83;;
26951;SDS011;14507;52.418;13.398;2022-08-14T13:00:31;4.68;;;3.20;;
26951;SDS011;14507;52.418;13.398;2022-08-14T13:02:59;5.45;;;3.15;;
26951;SDS011;14507;52.418;13.398;2022-08-14T13:05:27;5.20;;;3.05;;
26951;SDS011;14507;52.418;13.398;2022-08-14T13:07:58;5.00;;;2.90;;
26951;SDS011;14507;52.418;13.398;2022-08-14T13:13:25;5.63;;;3.10;;
26951;SDS011;14507;52.418;13.398;2022-08-14T13:15:57;7.28;;;3.03;;
26951;SDS011;14507;52.418;13.398;2022-08-14T13:18:23;8.63;;;3.58;;
26951;SDS011;14507;52.418;13.398;2022-08-14T13:20:51;5.10;;;3.22;;
26951;SDS011;14507;52.418;13.398;2022-08-14T13:23:18;5.43;;;2.92;;
26951;SDS011;14507;52.418;13.398;2022-08-14T13:25:43;7.72;;;2.90;;
26951;SDS011;14507;52.418;13.398;2022-08-14T13:28:14;4.78;;;3.00;;
26951;SDS011;14507;52.418;13.398;2022-08-14T13:30:40;7.65;;;2.90;;
26951;SDS011;14507;52.418;13.398;2022-08-14T13:33:09;6.85;;;3.28;;
26951;SDS011;14507;52.418;13.398;2022-08-14T13:35:37;7.95;;;3.42;;
26951;SDS011;14507;52.418;13.398;2022-08-14T13:38:03;5.72;;;3.00;;
26951;SDS011;14507;52.418;13.398;2022-08-14T13:40:28;2.88;;;2.20;;
26951;SDS011;14507;52.418;13.398;2022-08-14T13:42:54;4.85;;;2.90;;
26951;SDS011;14507;52.418;13.398;2022-08-14T13:45:20;4.60;;;2.70;;
26951;SDS011;14507;52.418;13.398;2022-08-14T13:47:48;6.10;;;2.45;;
26951;SDS011;14507;52.418;13.398;2022-08-14T13:50:16;4.75;;;2.55;;
26951;SDS011;14507;52.418;13.398;2022-08-14T13:53:03;4.70;;;2.30;;
26951;SDS011;14507;52.418;13.398;2022-08-14T13:55:48;5.00;;;2.05;;
26951;SDS011;14507;52.418;13.398;2022-08-14T13:58:16;4.15;;;2.13;;
26951;SDS011;14507;52.418;13.398;2022-08-14T14:00:44;3.40;;;2.30;;
26951;SDS011;14507;52.418;13.398;2022-08-14T14:03:11;5.13;;;2.78;;
26951;SDS011;14507;52.418;13.398;2022-08-14T14:05:38;4.50;;;2.50;;
26951;SDS011;14507;52.418;13.398;2022-08-14T14:10:34;6.57;;;2.85;;
26951;SDS011;14507;52.418;13.398;2022-08-14T14:15:26;7.10;;;2.97;;
26951;SDS011;14507;52.418;13.398;2022-08-14T14:17:52;4.50;;;3.15;;
26951;SDS011;14507;52.418;13.398;2022-08-14T14:20:19;6.13;;;2.50;;
26951;SDS011;14507;52.418;13.398;2022-08-14T14:22:49;3.60;;;2.72;;
26951;SDS011;14507;52.418;13.398;2022-08-14T14:25:15;6.03;;;2.90;;
26951;SDS011;14507;52.418;13.398;2022-08-14T14:27:43;4.68;;;2.60;;
26951;SDS011;14507;52.418;13.398;2022-08-14T14:30:10;5.50;;;3.00;;
26951;SDS011;14507;52.418;13.398;2022-08-14T14:32:38;5.20;;;2.60;;
26951;SDS011;14507;52.418;13.398;2022-08-14T14:35:11;5.53;;;2.38;;
26951;SDS011;14507;52.418;13.398;2022-08-14T14:37:39;3.92;;;1.90;;
26951;SDS011;14507;52.418;13.398;2022-08-14T14:40:08;4.20;;;2.13;;
26951;SDS011;14507;52.418;13.398;2022-08-14T14:42:36;2.78;;;1.88;;
26951;SDS011;14507;52.418;13.398;2022-08-14T14:45:13;5.10;;;2.20;;
26951;SDS011;14507;52.418;13.398;2022-08-14T14:47:50;3.38;;;2.05;;
26951;SDS011;14507;52.418;13.398;2022-08-14T14:50:18;4.45;;;2.40;;
26951;SDS011;14507;52.418;13.398;2022-08-14T14:52:45;4.63;;;2.30;;
26951;SDS011;14507;52.418;13.398;2022-08-14T14:55:12;5.88;;;1.90;;
26951;SDS011;14507;52.418;13.398;2022-08-14T14:57:38;5.22;;;2.08;;
26951;SDS011;14507;52.418;13.398;2022-08-14T15:00:12;3.80;;;2.10;;
26951;SDS011;14507;52.418;13.398;2022-08-14T15:02:40;5.38;;;2.67;;
26951;SDS011;14507;52.418;13.398;2022-08-14T15:05:08;3.10;;;1.98;;
26951;SDS011;14507;52.418;13.398;2022-08-14T15:07:35;3.35;;;2.33;;
26951;SDS011;14507;52.418;13.398;2022-08-14T15:10:03;3.40;;;2.10;;